Pilotenbedarf

Wir führen auch gängigen Pilotenbedarf.

Wir bieten Ihnen ausgesuchte Qualität zu günstigen Preisen.

Für weitere Informationen füllen Sie das Kontaktformular aus oder wenden sich direkt an:

Christian Sabionski

Tel.:   +49 (0)172 8140311

Flugwetter Augsburg

[source: ADDS]
METAR
EDMA 151020Z 26008KT 230V290 9999 FEW020 OVC062 17/12 Q1015 =
TAF EDMA 150800Z 1509/1518 28005KT CAVOK TEMPO 1509/1518 SHRA BKN025CB PROB30 TEMPO 1512/1518 4500 TSRA BKN012CB
TAF
TAF EDMA 150800Z 1509/1518 28005KT CAVOK TEMPO 1509/1518 SHRA BKN025CB PROB30 TEMPO 1512/1518 4500 TSRA BKN012CB =
Cookies erleichtern die Bereitstellung unserer Dienste. Mit der Nutzung unserer Dienste erklären Sie sich damit einverstanden, dass wir Cookies verwenden.
Weitere Informationen Ok